Time;durP1;ratioP1;P1;durP2;ratioP2;P2;SDS_P1;SDS_P2;PMS_P1;PMS_P2;Temp;Humidity;BMP_temperature;BMP_pressure;BME280_temperature;BME280_humidity;BME280_pressure;Samples;Min_cycle;Max_cycle;Signal;HPM_P1;HPM_P2
2023/03/13 00:00:07;;;;;;;;;;;17.40;44.60;;;;;;10368167;28;815;-74
2023/03/13 00:05:03;;;;;;;;;;;17.40;44.50;;;;;;10367079;28;874;-74
2023/03/13 00:09:58;;;;;;;;;;;17.40;44.60;;;;;;10367489;28;1887;-74
2023/03/13 00:14:53;;;;;;;;;;;17.40;44.60;;;;;;10367122;28;853;-74
2023/03/13 00:19:49;;;;;;;;;;;17.40;44.60;;;;;;10367538;28;819;-74
2023/03/13 00:24:44;;;;;;;;;;;17.40;44.60;;;;;;10366830;28;890;-74
2023/03/13 00:29:40;;;;;;;;;;;17.50;44.60;;;;;;10366647;28;1968;-78
2023/03/13 00:34:35;;;;;;;;;;;17.40;44.50;;;;;;10366539;28;831;-78
2023/03/13 00:39:30;;;;;;;;;;;17.40;44.60;;;;;;10365929;28;1478;-72
2023/03/13 00:44:26;;;;;;;;;;;17.40;44.70;;;;;;10366910;28;905;-79
2023/03/13 00:49:21;;;;;;;;;;;17.40;44.70;;;;;;10365462;28;1917;-79
2023/03/13 00:54:16;;;;;;;;;;;17.50;44.70;;;;;;10366115;28;981;-78
2023/03/13 00:59:12;;;;;;;;;;;17.40;44.70;;;;;;10398390;28;1124;-74
2023/03/13 01:04:07;;;;;;;;;;;17.40;44.70;;;;;;10416004;28;1032;-74
2023/03/13 01:09:02;;;;;;;;;;;17.40;44.70;;;;;;10415749;28;1910;-74
2023/03/13 01:13:58;;;;;;;;;;;17.40;44.80;;;;;;10416241;28;949;-74
2023/03/13 01:18:53;;;;;;;;;;;17.40;44.80;;;;;;10416799;28;850;-74
2023/03/13 01:23:48;;;;;;;;;;;17.40;44.80;;;;;;10415146;28;831;-74
2023/03/13 01:28:44;;;;;;;;;;;17.40;44.80;;;;;;10415535;28;1989;-74
2023/03/13 01:33:39;;;;;;;;;;;17.40;45.00;;;;;;10414502;28;882;-74
2023/03/13 01:38:35;;;;;;;;;;;17.40;44.90;;;;;;10414641;28;787;-74
2023/03/13 01:43:30;;;;;;;;;;;17.40;45.00;;;;;;10413730;28;1411;-74
2023/03/13 01:48:25;;;;;;;;;;;17.40;44.90;;;;;;10413641;28;1982;-75
2023/03/13 01:53:21;;;;;;;;;;;17.40;44.90;;;;;;10414147;28;897;-74
2023/03/13 01:58:16;;;;;;;;;;;17.40;44.90;;;;;;10413903;28;869;-75
2023/03/13 02:03:11;;;;;;;;;;;17.40;44.90;;;;;;10414328;28;837;-74
2023/03/13 02:08:07;;;;;;;;;;;17.40;45.00;;;;;;10413606;28;1902;-74
2023/03/13 02:13:02;;;;;;;;;;;17.40;45.00;;;;;;10412285;28;958;-74
2023/03/13 02:17:59;;;;;;;;;;;17.40;45.00;;;;;;10413204;28;830;-74
2023/03/13 02:22:54;;;;;;;;;;;17.40;45.00;;;;;;10412646;28;928;-74
2023/03/13 02:27:49;;;;;;;;;;;17.40;45.10;;;;;;10412671;28;1909;-74
2023/03/13 02:32:45;;;;;;;;;;;17.40;45.00;;;;;;10413123;28;826;-74
2023/03/13 02:37:40;;;;;;;;;;;17.40;44.90;;;;;;10412962;28;897;-74
2023/03/13 02:42:35;;;;;;;;;;;17.40;45.00;;;;;;10412491;28;1144;-74
2023/03/13 02:47:31;;;;;;;;;;;17.40;45.00;;;;;;10411317;28;1910;-74
2023/03/13 02:52:26;;;;;;;;;;;17.40;45.00;;;;;;10412382;28;936;-74
2023/03/13 02:57:21;;;;;;;;;;;17.40;45.00;;;;;;10412468;28;827;-74
2023/03/13 03:02:17;;;;;;;;;;;17.50;45.10;;;;;;10411143;28;773;-74
2023/03/13 03:07:12;;;;;;;;;;;17.40;45.00;;;;;;10411247;28;901;-74
2023/03/13 03:12:07;;;;;;;;;;;17.40;45.10;;;;;;10410905;28;1910;-74
2023/03/13 03:17:03;;;;;;;;;;;17.40;45.10;;;;;;10410754;28;805;-74
2023/03/13 03:21:58;;;;;;;;;;;17.50;45.20;;;;;;10410163;28;920;-74
2023/03/13 03:26:54;;;;;;;;;;;17.50;45.20;;;;;;10410393;28;795;-74
2023/03/13 03:31:49;;;;;;;;;;;17.40;45.20;;;;;;10410097;28;1959;-74
2023/03/13 03:36:44;;;;;;;;;;;17.40;45.30;;;;;;10410044;28;842;-74
2023/03/13 03:41:40;;;;;;;;;;;17.40;45.30;;;;;;10410502;28;1449;-74
2023/03/13 03:46:35;;;;;;;;;;;17.40;45.40;;;;;;10409666;28;992;-74
2023/03/13 03:51:30;;;;;;;;;;;17.40;45.30;;;;;;10409455;28;1906;-74
2023/03/13 03:56:26;;;;;;;;;;;17.40;45.40;;;;;;10408623;28;918;-74
2023/03/13 04:01:21;;;;;;;;;;;17.40;45.50;;;;;;10409671;28;885;-74
2023/03/13 04:06:16;;;;;;;;;;;17.40;45.50;;;;;;10408893;28;984;-74
2023/03/13 04:11:12;;;;;;;;;;;17.40;45.50;;;;;;10408669;28;1957;-74
2023/03/13 04:16:07;;;;;;;;;;;17.40;45.60;;;;;;10408524;28;857;-74
2023/03/13 04:21:02;;;;;;;;;;;17.40;45.60;;;;;;10408396;28;969;-75
2023/03/13 04:25:58;;;;;;;;;;;17.40;45.80;;;;;;10408904;28;934;-74
2023/03/13 04:30:56;;;;;;;;;;;17.40;45.60;;;;;;10408061;28;1957;-75
2023/03/13 04:35:51;;;;;;;;;;;17.40;45.80;;;;;;10408185;28;877;-74
2023/03/13 04:40:47;;;;;;;;;;;17.40;45.80;;;;;;10407064;28;1290;-75
2023/03/13 04:45:42;;;;;;;;;;;17.40;45.90;;;;;;10407723;28;1608;-74
2023/03/13 04:50:38;;;;;;;;;;;17.30;45.90;;;;;;10389441;28;1910;-74
2023/03/13 04:55:33;;;;;;;;;;;17.40;45.80;;;;;;10407590;28;885;-74
2023/03/13 05:00:28;;;;;;;;;;;17.40;45.90;;;;;;10408271;28;815;-74
2023/03/13 05:05:24;;;;;;;;;;;17.40;45.90;;;;;;10407379;28;1100;-74
2023/03/13 05:10:19;;;;;;;;;;;17.40;46.00;;;;;;10407151;28;1956;-74
2023/03/13 05:15:15;;;;;;;;;;;17.40;46.00;;;;;;10407231;28;858;-74
2023/03/13 05:20:10;;;;;;;;;;;17.40;46.10;;;;;;10407031;28;989;-74
2023/03/13 05:25:05;;;;;;;;;;;17.40;46.10;;;;;;10407037;28;768;-74
2023/03/13 05:30:01;;;;;;;;;;;17.50;46.10;;;;;;10406934;28;1907;-74
2023/03/13 05:34:56;;;;;;;;;;;17.50;46.20;;;;;;10406898;28;775;-74
2023/03/13 05:39:51;;;;;;;;;;;17.50;46.20;;;;;;10406963;28;1318;-76
2023/03/13 05:44:47;;;;;;;;;;;17.50;46.30;;;;;;10408928;28;948;-77
2023/03/13 05:49:42;;;;;;;;;;;17.50;46.40;;;;;;10413652;28;1911;-80
2023/03/13 05:54:38;;;;;;;;;;;17.50;46.30;;;;;;10414162;28;793;-71
2023/03/13 05:59:33;;;;;;;;;;;17.60;46.40;;;;;;10413844;28;856;-70
2023/03/13 06:04:28;;;;;;;;;;;17.60;46.40;;;;;;10413710;28;1098;-72
2023/03/13 06:09:24;;;;;;;;;;;17.60;46.40;;;;;;10413459;28;1898;-71
2023/03/13 06:14:19;;;;;;;;;;;17.60;46.40;;;;;;10414036;28;818;-71
2023/03/13 06:19:14;;;;;;;;;;;17.60;46.60;;;;;;10413733;28;850;-71
2023/03/13 06:24:10;;;;;;;;;;;17.60;46.50;;;;;;10412933;28;875;-71
2023/03/13 06:29:05;;;;;;;;;;;17.60;46.50;;;;;;10412714;28;1902;-81
2023/03/13 06:34:01;;;;;;;;;;;17.60;46.60;;;;;;10411931;28;901;-68
2023/03/13 06:38:56;;;;;;;;;;;17.70;46.90;;;;;;10411963;28;1418;-78
2023/03/13 06:43:51;;;;;;;;;;;17.70;47.00;;;;;;10412140;28;1210;-71
2023/03/13 06:48:47;;;;;;;;;;;17.70;47.30;;;;;;10412501;28;1906;-71
2023/03/13 06:53:42;;;;;;;;;;;17.70;47.60;;;;;;10411881;28;848;-72
2023/03/13 06:58:37;;;;;;;;;;;17.60;47.80;;;;;;10411166;28;882;-72
2023/03/13 07:03:33;;;;;;;;;;;17.60;47.70;;;;;;10411955;28;795;-72
2023/03/13 07:08:28;;;;;;;;;;;17.60;48.20;;;;;;10411048;28;1901;-72
2023/03/13 07:13:24;;;;;;;;;;;17.60;47.50;;;;;;10410969;28;780;-73
2023/03/13 07:18:19;;;;;;;;;;;17.60;47.30;;;;;;10410800;28;968;-74
2023/03/13 07:23:14;;;;;;;;;;;17.60;47.40;;;;;;10409182;28;1089;-76
2023/03/13 07:28:10;;;;;;;;;;;17.70;47.90;;;;;;10407721;28;1969;-73
2023/03/13 07:33:05;;;;;;;;;;;17.80;48.40;;;;;;10410181;28;891;-74
2023/03/13 07:38:01;;;;;;;;;;;17.80;48.70;;;;;;10410110;28;872;-75
2023/03/13 07:42:56;;;;;;;;;;;17.80;48.80;;;;;;10409980;28;1158;-74
2023/03/13 07:47:51;;;;;;;;;;;17.80;48.80;;;;;;10409457;28;1972;-74
2023/03/13 07:52:47;;;;;;;;;;;17.80;48.90;;;;;;10409436;28;776;-75
2023/03/13 07:57:42;;;;;;;;;;;17.90;48.90;;;;;;10410156;28;834;-74
2023/03/13 08:02:37;;;;;;;;;;;17.90;48.90;;;;;;10409029;28;787;-74
2023/03/13 08:07:33;;;;;;;;;;;17.90;48.80;;;;;;10408727;28;1950;-74
2023/03/13 08:12:28;;;;;;;;;;;17.70;48.70;;;;;;10408141;28;956;-74
2023/03/13 08:17:24;;;;;;;;;;;17.70;48.80;;;;;;10409318;28;893;-74
2023/03/13 08:22:19;;;;;;;;;;;17.60;48.60;;;;;;10408450;28;869;-74
2023/03/13 08:27:14;;;;;;;;;;;17.60;48.60;;;;;;10407634;28;984;-74
2023/03/13 08:32:10;;;;;;;;;;;17.60;48.70;;;;;;10368615;28;1917;-74
2023/03/13 08:37:05;;;;;;;;;;;17.60;48.50;;;;;;10367002;28;858;-75
2023/03/13 08:42:00;;;;;;;;;;;17.60;48.60;;;;;;10367739;28;1143;-74
2023/03/13 08:46:58;;;;;;;;;;;17.60;48.40;;;;;;10365723;28;854;-74
2023/03/13 08:51:55;;;;;;;;;;;17.60;48.50;;;;;;10366098;28;1973;-75
2023/03/13 08:56:50;;;;;;;;;;;17.60;48.40;;;;;;10365565;28;775;-74
2023/03/13 09:01:45;;;;;;;;;;;17.60;48.40;;;;;;10365934;28;862;-74
2023/03/13 09:06:41;;;;;;;;;;;17.60;48.40;;;;;;10365902;28;815;-74
2023/03/13 09:11:36;;;;;;;;;;;17.60;48.40;;;;;;10366501;28;1902;-74
2023/03/13 09:16:31;;;;;;;;;;;17.60;48.40;;;;;;10365769;28;790;-74
2023/03/13 09:21:27;;;;;;;;;;;17.60;48.40;;;;;;10372511;28;818;-74
2023/03/13 09:26:22;;;;;;;;;;;17.70;48.40;;;;;;10373659;28;885;-74
2023/03/13 09:31:18;;;;;;;;;;;17.60;48.40;;;;;;10373385;28;1906;-74
2023/03/13 09:36:13;;;;;;;;;;;17.60;48.30;;;;;;10373226;28;1542;-75
2023/03/13 09:41:09;;;;;;;;;;;17.60;48.30;;;;;;10373021;28;1417;-74
2023/03/13 09:46:04;;;;;;;;;;;17.60;48.20;;;;;;10372949;28;815;-74
2023/03/13 09:50:59;;;;;;;;;;;17.70;48.50;;;;;;10373279;28;1984;-74
2023/03/13 09:55:55;;;;;;;;;;;17.70;48.30;;;;;;10372009;28;944;-74
2023/03/13 10:00:50;;;;;;;;;;;17.70;48.30;;;;;;10372348;28;814;-74
2023/03/13 10:05:45;;;;;;;;;;;17.70;48.40;;;;;;10371982;28;914;-74
2023/03/13 10:10:41;;;;;;;;;;;17.70;48.40;;;;;;10371087;28;1910;-74
2023/03/13 10:15:36;;;;;;;;;;;17.70;48.40;;;;;;10371798;28;768;-75
2023/03/13 10:20:32;;;;;;;;;;;17.70;48.40;;;;;;10371592;28;790;-74
2023/03/13 10:25:27;;;;;;;;;;;17.80;48.30;;;;;;10371402;28;771;-74
2023/03/13 10:30:23;;;;;;;;;;;17.80;48.50;;;;;;10370462;28;1906;-74
2023/03/13 10:35:18;;;;;;;;;;;17.80;48.40;;;;;;10371178;28;882;-78
2023/03/13 10:40:14;;;;;;;;;;;17.80;48.50;;;;;;10370780;28;1166;-78
2023/03/13 10:45:09;;;;;;;;;;;17.80;48.60;;;;;;10370554;28;803;-74
2023/03/13 10:50:04;;;;;;;;;;;17.80;48.50;;;;;;10371192;28;1913;-75
2023/03/13 10:55:00;;;;;;;;;;;17.80;48.80;;;;;;10370234;28;859;-74
2023/03/13 10:59:55;;;;;;;;;;;17.80;48.80;;;;;;10368780;28;818;-81
2023/03/13 11:04:52;;;;;;;;;;;17.90;49.10;;;;;;10369251;28;846;-79
2023/03/13 11:09:48;;;;;;;;;;;18.10;49.40;;;;;;10370006;28;1886;-80
2023/03/13 11:14:43;;;;;;;;;;;18.10;49.60;;;;;;10371394;28;905;-78
2023/03/13 11:19:41;;;;;;;;;;;18.10;49.70;;;;;;10368252;28;932;-78
2023/03/13 11:24:36;;;;;;;;;;;18.20;49.80;;;;;;10369623;28;853;-75
2023/03/13 11:29:32;;;;;;;;;;;18.20;49.80;;;;;;10369372;28;1976;-74
2023/03/13 11:34:28;;;;;;;;;;;18.00;49.60;;;;;;10368691;28;831;-74
2023/03/13 11:39:23;;;;;;;;;;;18.00;49.80;;;;;;10368357;28;1100;-74
2023/03/13 11:44:19;;;;;;;;;;;18.00;49.70;;;;;;10367486;28;810;-74
2023/03/13 11:49:14;;;;;;;;;;;18.00;49.50;;;;;;10365967;28;1909;-74
2023/03/13 11:54:09;;;;;;;;;;;17.90;49.30;;;;;;10367434;28;911;-74
2023/03/13 11:59:05;;;;;;;;;;;18.00;49.40;;;;;;10367325;28;802;-74
2023/03/13 12:04:00;;;;;;;;;;;17.90;49.30;;;;;;10367360;28;1004;-74
2023/03/13 12:08:56;;;;;;;;;;;18.00;49.20;;;;;;10366960;28;1910;-77
2023/03/13 12:13:51;;;;;;;;;;;18.10;49.40;;;;;;10367750;28;846;-77
2023/03/13 12:18:46;;;;;;;;;;;18.10;49.80;;;;;;10366249;28;782;-77
2023/03/13 12:23:42;;;;;;;;;;;18.20;50.20;;;;;;10365862;28;890;-78
2023/03/13 12:28:37;;;;;;;;;;;18.20;50.10;;;;;;10361446;28;1906;-77
2023/03/13 12:33:32;;;;;;;;;;;18.20;50.20;;;;;;10382181;28;890;-77
2023/03/13 12:38:28;;;;;;;;;;;18.30;50.20;;;;;;10397601;28;1014;-78
2023/03/13 12:43:23;;;;;;;;;;;18.30;50.20;;;;;;10407261;28;1341;-78
2023/03/13 12:48:19;;;;;;;;;;;18.40;50.30;;;;;;10407817;28;1985;-78
2023/03/13 12:53:15;;;;;;;;;;;18.40;50.30;;;;;;10410749;28;807;-78
2023/03/13 12:58:10;;;;;;;;;;;18.40;50.40;;;;;;10421659;28;896;-78
2023/03/13 13:03:06;;;;;;;;;;;18.40;50.60;;;;;;10421442;28;920;-78
2023/03/13 13:08:01;;;;;;;;;;;18.40;50.60;;;;;;10421227;28;1913;-78
2023/03/13 13:12:57;;;;;;;;;;;18.50;50.70;;;;;;10421493;28;803;-78
2023/03/13 13:17:52;;;;;;;;;;;18.50;50.70;;;;;;10421933;28;799;-78
2023/03/13 13:22:47;;;;;;;;;;;18.50;50.80;;;;;;10404159;28;794;-77
2023/03/13 13:27:43;;;;;;;;;;;18.50;50.80;;;;;;10420875;28;1910;-77
2023/03/13 13:32:38;;;;;;;;;;;18.50;50.90;;;;;;10421500;28;866;-78
2023/03/13 13:37:33;;;;;;;;;;;18.50;50.90;;;;;;10420069;28;960;-76
2023/03/13 13:42:32;;;;;;;;;;;18.50;50.80;;;;;;10420309;28;1227;-75
2023/03/13 13:47:27;;;;;;;;;;;18.50;50.70;;;;;;10420508;28;908;-80
2023/03/13 13:52:23;;;;;;;;;;;18.50;50.50;;;;;;10421003;28;1975;-77
2023/03/13 13:57:18;;;;;;;;;;;18.50;50.30;;;;;;10420362;28;913;-75
2023/03/13 14:02:13;;;;;;;;;;;18.50;50.30;;;;;;10420706;28;842;-76
2023/03/13 14:07:09;;;;;;;;;;;18.50;50.30;;;;;;10414092;28;885;-74
2023/03/13 14:12:04;;;;;;;;;;;18.50;50.20;;;;;;10413622;28;1898;-76
2023/03/13 14:17:00;;;;;;;;;;;18.50;50.10;;;;;;10412904;28;865;-72
2023/03/13 14:21:57;;;;;;;;;;;18.50;49.90;;;;;;10413288;28;896;-75
2023/03/13 14:26:53;;;;;;;;;;;18.50;49.90;;;;;;10412613;28;957;-75
2023/03/13 14:31:48;;;;;;;;;;;18.40;49.80;;;;;;10411824;28;1902;-75
2023/03/13 14:36:43;;;;;;;;;;;18.40;49.80;;;;;;10412324;28;847;-75
2023/03/13 14:41:39;;;;;;;;;;;18.40;49.80;;;;;;10412062;28;1315;-75
2023/03/13 14:46:34;;;;;;;;;;;18.40;49.80;;;;;;10411860;28;842;-75
2023/03/13 14:51:29;;;;;;;;;;;18.40;49.80;;;;;;10411513;28;1913;-75
2023/03/13 14:56:25;;;;;;;;;;;18.50;49.70;;;;;;10411506;28;948;-75
2023/03/13 15:01:20;;;;;;;;;;;18.50;49.60;;;;;;10411987;28;858;-76
2023/03/13 15:06:16;;;;;;;;;;;18.50;49.80;;;;;;10411389;28;886;-75
2023/03/13 15:11:11;;;;;;;;;;;18.50;50.00;;;;;;10411192;28;1971;-76
2023/03/13 15:16:06;;;;;;;;;;;18.50;50.10;;;;;;10411362;28;810;-76
2023/03/13 15:21:02;;;;;;;;;;;18.50;50.20;;;;;;10411342;28;878;-76
2023/03/13 15:25:57;;;;;;;;;;;18.50;50.20;;;;;;10410617;28;830;-75
2023/03/13 15:30:53;;;;;;;;;;;18.60;50.20;;;;;;10410266;28;1913;-74
2023/03/13 15:35:48;;;;;;;;;;;18.60;50.30;;;;;;10410209;28;830;-74
2023/03/13 15:40:43;;;;;;;;;;;18.50;50.50;;;;;;10409948;28;1076;-75
2023/03/13 15:45:39;;;;;;;;;;;18.50;50.60;;;;;;10409108;28;1016;-75
2023/03/13 15:50:34;;;;;;;;;;;18.60;50.60;;;;;;10409691;28;1971;-75
2023/03/13 15:55:29;;;;;;;;;;;18.60;50.70;;;;;;10400130;28;1105;-75
2023/03/13 16:00:25;;;;;;;;;;;18.60;50.80;;;;;;10368880;28;1070;-75
2023/03/13 16:05:20;;;;;;;;;;;18.70;50.70;;;;;;10366770;28;1042;-74
2023/03/13 16:10:16;;;;;;;;;;;18.60;50.60;;;;;;10369523;28;1905;-76
2023/03/13 16:15:11;;;;;;;;;;;18.60;50.60;;;;;;10363797;28;1858;-72
2023/03/13 16:20:09;;;;;;;;;;;18.60;50.50;;;;;;10365775;28;1569;-76
2023/03/13 16:25:05;;;;;;;;;;;18.70;50.30;;;;;;10371026;28;1150;-76
2023/03/13 16:30:02;;;;;;;;;;;18.70;50.20;;;;;;10362852;28;1906;-77
2023/03/13 16:34:58;;;;;;;;;;;18.70;50.10;;;;;;10365478;28;1456;-76
2023/03/13 16:39:53;;;;;;;;;;;18.70;50.10;;;;;;10365226;28;1338;-76
2023/03/13 16:44:49;;;;;;;;;;;18.70;50.00;;;;;;10364990;28;1075;-76
2023/03/13 16:49:44;;;;;;;;;;;18.70;49.90;;;;;;10364954;28;1930;-76
2023/03/13 16:54:40;;;;;;;;;;;18.70;49.80;;;;;;10366010;28;846;-75
2023/03/13 16:59:35;;;;;;;;;;;18.70;49.90;;;;;;10371429;28;1185;-74
2023/03/13 17:04:30;;;;;;;;;;;18.70;49.80;;;;;;10365549;28;1246;-77
2023/03/13 17:09:27;;;;;;;;;;;18.70;49.80;;;;;;10373056;28;1917;-77
2023/03/13 17:14:23;;;;;;;;;;;18.70;50.00;;;;;;10367044;28;1159;-77
2023/03/13 17:19:18;;;;;;;;;;;18.70;50.00;;;;;;10364410;28;1093;-77
2023/03/13 17:24:13;;;;;;;;;;;18.70;50.00;;;;;;10365117;28;1154;-77
2023/03/13 17:29:09;;;;;;;;;;;18.70;50.00;;;;;;10371679;28;1965;-77
2023/03/13 17:34:04;;;;;;;;;;;18.70;50.00;;;;;;10364867;28;1095;-77
2023/03/13 17:38:59;;;;;;;;;;;18.70;49.90;;;;;;10364468;28;1341;-77
2023/03/13 17:43:55;;;;;;;;;;;18.70;49.80;;;;;;10391335;28;1094;-77
2023/03/13 17:48:50;;;;;;;;;;;18.70;49.80;;;;;;10390851;28;1913;-78
2023/03/13 17:53:46;;;;;;;;;;;18.70;49.70;;;;;;10372309;28;1094;-77
2023/03/13 17:58:41;;;;;;;;;;;18.80;49.60;;;;;;10370194;28;1134;-77
2023/03/13 18:03:36;;;;;;;;;;;18.80;49.50;;;;;;10372989;28;1091;-77
2023/03/13 18:08:32;;;;;;;;;;;18.80;49.50;;;;;;10371714;28;1914;-77
2023/03/13 18:13:27;;;;;;;;;;;18.80;49.40;;;;;;10371833;28;1067;-77
2023/03/13 18:18:23;;;;;;;;;;;18.90;49.30;;;;;;10381490;28;1090;-78
2023/03/13 18:23:18;;;;;;;;;;;18.80;49.30;;;;;;10370057;28;1125;-77
2023/03/13 18:28:13;;;;;;;;;;;18.90;49.30;;;;;;10370864;28;1911;-79
2023/03/13 18:33:09;;;;;;;;;;;18.90;49.20;;;;;;10385290;28;1071;-74
2023/03/13 18:38:06;;;;;;;;;;;18.90;49.30;;;;;;10379117;28;1047;-74
2023/03/13 18:43:01;;;;;;;;;;;18.70;49.30;;;;;;10369579;28;1544;-73
2023/03/13 18:47:58;;;;;;;;;;;18.70;49.30;;;;;;10367289;28;1975;-75
2023/03/13 18:52:54;;;;;;;;;;;18.70;49.20;;;;;;10369316;28;1074;-75
2023/03/13 18:57:49;;;;;;;;;;;18.70;49.10;;;;;;10369600;28;1075;-75
2023/03/13 19:02:44;;;;;;;;;;;18.70;49.10;;;;;;10371513;28;1063;-75
2023/03/13 19:07:40;;;;;;;;;;;18.70;49.00;;;;;;10380354;28;1228;-75
2023/03/13 19:12:35;;;;;;;;;;;18.70;48.90;;;;;;10369232;28;1977;-75
2023/03/13 19:17:31;;;;;;;;;;;18.70;48.80;;;;;;10391890;28;1043;-72
2023/03/13 19:22:26;;;;;;;;;;;18.70;48.80;;;;;;10368123;28;1138;-79
2023/03/13 19:27:21;;;;;;;;;;;18.70;48.70;;;;;;10368649;28;882;-76
2023/03/13 19:32:17;;;;;;;;;;;18.70;48.60;;;;;;10368233;28;1964;-76
2023/03/13 19:37:12;;;;;;;;;;;18.80;48.70;;;;;;10368638;28;805;-73
2023/03/13 19:42:08;;;;;;;;;;;18.80;48.80;;;;;;10368104;28;1552;-73
2023/03/13 19:47:03;;;;;;;;;;;18.70;48.70;;;;;;10368290;28;810;-73
2023/03/13 19:51:59;;;;;;;;;;;18.80;48.70;;;;;;10367143;28;1910;-74
2023/03/13 19:56:55;;;;;;;;;;;18.70;48.70;;;;;;10367419;28;862;-73
2023/03/13 20:01:50;;;;;;;;;;;18.80;48.70;;;;;;10367953;28;803;-73
2023/03/13 20:06:45;;;;;;;;;;;18.70;48.50;;;;;;10366806;28;778;-85
2023/03/13 20:11:41;;;;;;;;;;;18.70;48.40;;;;;;10367393;28;1957;-86
2023/03/13 20:16:36;;;;;;;;;;;18.80;48.50;;;;;;10367060;28;903;-87
2023/03/13 20:21:31;;;;;;;;;;;18.80;48.40;;;;;;10367623;28;808;-88
2023/03/13 20:26:27;;;;;;;;;;;18.80;48.40;;;;;;10367000;28;859;-88
2023/03/13 20:31:22;;;;;;;;;;;18.80;48.30;;;;;;10367547;28;1979;-87
2023/03/13 20:36:18;;;;;;;;;;;18.80;48.30;;;;;;10367386;28;847;-88
2023/03/13 20:41:15;;;;;;;;;;;18.80;48.30;;;;;;10366048;28;1242;-87
2023/03/13 20:46:10;;;;;;;;;;;18.80;48.30;;;;;;10367070;28;769;-88
2023/03/13 20:51:05;;;;;;;;;;;18.80;48.30;;;;;;10366318;28;1969;-76
2023/03/13 20:56:01;;;;;;;;;;;18.80;48.30;;;;;;10366269;28;819;-76
2023/03/13 21:00:56;;;;;;;;;;;18.80;48.30;;;;;;10366193;28;937;-75
2023/03/13 21:05:51;;;;;;;;;;;18.70;48.20;;;;;;10366675;28;830;-76
2023/03/13 21:10:47;;;;;;;;;;;18.70;48.20;;;;;;10366016;28;1961;-76
2023/03/13 21:15:42;;;;;;;;;;;18.70;48.20;;;;;;10369982;28;814;-75
2023/03/13 21:20:38;;;;;;;;;;;18.70;48.30;;;;;;10374250;28;935;-80
2023/03/13 21:25:33;;;;;;;;;;;18.60;48.20;;;;;;10374573;28;851;-80
2023/03/13 21:30:28;;;;;;;;;;;18.60;48.30;;;;;;10372162;28;1902;-81
2023/03/13 21:35:24;;;;;;;;;;;18.60;48.40;;;;;;10373309;28;1532;-80
2023/03/13 21:40:19;;;;;;;;;;;18.60;48.30;;;;;;10372930;28;1547;-79
2023/03/13 21:45:14;;;;;;;;;;;18.60;48.30;;;;;;10373335;28;1437;-80
2023/03/13 21:50:10;;;;;;;;;;;18.60;48.20;;;;;;10371751;28;1980;-79
2023/03/13 21:55:06;;;;;;;;;;;18.60;48.20;;;;;;10372712;28;1488;-79
2023/03/13 22:00:04;;;;;;;;;;;18.60;48.20;;;;;;10372875;28;1488;-80
2023/03/13 22:04:59;;;;;;;;;;;18.60;48.20;;;;;;10371185;28;1481;-75
2023/03/13 22:09:54;;;;;;;;;;;18.60;48.20;;;;;;10371902;28;1910;-77
2023/03/13 22:14:50;;;;;;;;;;;18.60;48.20;;;;;;10372027;28;1606;-76
2023/03/13 22:19:45;;;;;;;;;;;18.60;48.20;;;;;;10388010;28;1098;-76
2023/03/13 22:24:40;;;;;;;;;;;18.60;48.20;;;;;;10411142;28;1014;-76
2023/03/13 22:29:36;;;;;;;;;;;18.60;48.20;;;;;;10411475;28;1898;-81
2023/03/13 22:34:31;;;;;;;;;;;18.60;48.20;;;;;;10412637;28;764;-79
2023/03/13 22:39:27;;;;;;;;;;;18.60;48.10;;;;;;10411872;28;1285;-80
2023/03/13 22:44:22;;;;;;;;;;;18.60;48.10;;;;;;10413036;28;808;-79
2023/03/13 22:49:17;;;;;;;;;;;18.60;48.10;;;;;;10412959;28;1979;-79
2023/03/13 22:54:13;;;;;;;;;;;18.60;48.10;;;;;;10412075;28;822;-79
2023/03/13 22:59:08;;;;;;;;;;;18.60;48.00;;;;;;10411850;28;785;-78
2023/03/13 23:04:03;;;;;;;;;;;18.50;47.90;;;;;;10411768;28;925;-83
2023/03/13 23:08:59;;;;;;;;;;;18.50;47.90;;;;;;10411969;28;1909;-79
2023/03/13 23:13:54;;;;;;;;;;;18.50;47.80;;;;;;10411152;28;857;-79
2023/03/13 23:18:50;;;;;;;;;;;18.60;47.90;;;;;;10411032;28;775;-80
2023/03/13 23:23:46;;;;;;;;;;;18.50;47.80;;;;;;10410943;28;827;-75
2023/03/13 23:28:41;;;;;;;;;;;18.60;47.90;;;;;;10411151;28;1956;-79
2023/03/13 23:33:36;;;;;;;;;;;18.50;47.80;;;;;;10410399;28;988;-75
2023/03/13 23:38:32;;;;;;;;;;;18.50;47.70;;;;;;10410210;28;835;-75
2023/03/13 23:43:27;;;;;;;;;;;18.50;47.80;;;;;;10409460;28;1533;-75
2023/03/13 23:48:22;;;;;;;;;;;18.50;47.80;;;;;;10409190;28;1910;-74
2023/03/13 23:53:18;;;;;;;;;;;18.50;47.80;;;;;;10411141;28;870;-74
2023/03/13 23:58:13;;;;;;;;;;;18.50;47.80;;;;;;10408792;28;935;-75
